Time;durP1;ratioP1;P1;durP2;ratioP2;P2;SDS_P1;SDS_P2;PMS_P1;PMS_P2;Temp;Humidity;BMP_temperature;BMP_pressure;BME280_temperature;BME280_humidity;BME280_pressure;Samples;Min_cycle;Max_cycle;Signal;HPM_P1;HPM_P2
2022/04/15 00:00:29;;;;;;;8.77;2.83;;;;;;;;;;4182123;28;20076;-83
2022/04/15 00:02:30;;;;;;;8.27;2.50;;;;;;;;;;4182406;28;20108;-82
2022/04/15 00:04:31;;;;;;;11.65;3.72;;;;;;;;;;4181967;28;20098;-82
2022/04/15 00:06:33;;;;;;;5.13;2.90;;;;;;;;;;4182594;28;20060;-83
2022/04/15 00:08:34;;;;;;;7.60;2.88;;;;;;;;;;4182389;28;20533;-83
2022/04/15 00:10:35;;;;;;;8.98;2.63;;;;;;;;;;4182199;28;20125;-82
2022/04/15 00:12:39;;;;;;;10.45;2.88;;;;;;;;;;4182064;28;20041;-83
2022/04/15 00:14:40;;;;;;;5.05;2.83;;;;;;;;;;4181584;28;20137;-84
2022/04/15 00:16:43;;;;;;;4.38;2.60;;;;;;;;;;4180314;28;20104;-83
2022/04/15 00:18:44;;;;;;;5.25;2.50;;;;;;;;;;4181392;28;20049;-82
2022/04/15 00:20:45;;;;;;;5.28;2.75;;;;;;;;;;4181763;28;20041;-82
2022/04/15 00:22:47;;;;;;;4.22;2.40;;;;;;;;;;4181563;28;20087;-82
2022/04/15 00:24:48;;;;;;;4.63;1.80;;;;;;;;;;4180377;28;20068;-83
2022/04/15 00:26:49;;;;;;;4.95;2.20;;;;;;;;;;4181214;28;20041;-83
2022/04/15 00:28:52;;;;;;;7.47;2.50;;;;;;;;;;4181750;28;20538;-83
2022/04/15 00:30:53;;;;;;;3.60;1.90;;;;;;;;;;4181232;28;20422;-83
2022/04/15 00:32:55;;;;;;;8.57;2.38;;;;;;;;;;4181422;28;20409;-83
2022/04/15 00:34:56;;;;;;;6.85;2.75;;;;;;;;;;4181140;28;20052;-82
2022/04/15 00:36:57;;;;;;;3.38;1.90;;;;;;;;;;4181482;28;20045;-82
2022/04/15 00:38:58;;;;;;;4.40;2.10;;;;;;;;;;4181284;28;20098;-83
2022/04/15 00:40:59;;;;;;;2.78;1.80;;;;;;;;;;4180935;28;20052;-82
2022/04/15 00:43:01;;;;;;;3.35;1.98;;;;;;;;;;4179704;28;20130;-83
2022/04/15 00:45:03;;;;;;;4.80;2.20;;;;;;;;;;4180949;28;20452;-82
2022/04/15 00:47:15;;;;;;;4.32;1.88;;;;;;;;;;4180923;28;20059;-82
2022/04/15 00:49:16;;;;;;;5.88;2.33;;;;;;;;;;4179357;28;20052;-83
2022/04/15 00:51:17;;;;;;;5.35;2.00;;;;;;;;;;4180504;28;20037;-83
2022/04/15 00:53:22;;;;;;;6.05;2.17;;;;;;;;;;4180633;28;20414;-83
2022/04/15 00:55:23;;;;;;;7.25;2.60;;;;;;;;;;4180147;28;20049;-82
2022/04/15 00:57:26;;;;;;;4.90;2.40;;;;;;;;;;4180327;28;20095;-83
2022/04/15 00:59:28;;;;;;;3.03;2.08;;;;;;;;;;4179805;28;20155;-83
2022/04/15 01:01:29;;;;;;;5.95;1.95;;;;;;;;;;4180528;28;20045;-83
2022/04/15 01:03:31;;;;;;;6.53;1.73;;;;;;;;;;4180273;28;20081;-83
2022/04/15 01:05:32;;;;;;;7.13;2.13;;;;;;;;;;4180613;28;20048;-82
2022/04/15 01:07:34;;;;;;;4.75;1.80;;;;;;;;;;4180509;28;20599;-82
2022/04/15 01:09:42;;;;;;;6.28;1.92;;;;;;;;;;4180223;28;20128;-83
2022/04/15 01:11:44;;;;;;;11.63;2.70;;;;;;;;;;4182061;28;20506;-82
2022/04/15 01:13:46;;;;;;;6.13;1.95;;;;;;;;;;4199715;28;20112;-82
2022/04/15 01:15:47;;;;;;;5.65;1.85;;;;;;;;;;4203443;28;20068;-83
2022/04/15 01:17:49;;;;;;;4.93;1.88;;;;;;;;;;4203767;28;20039;-83
2022/04/15 01:19:50;;;;;;;4.07;1.75;;;;;;;;;;4203636;28;20075;-83
2022/04/15 01:21:55;;;;;;;7.70;1.98;;;;;;;;;;4202921;28;20059;-83
2022/04/15 01:23:56;;;;;;;3.88;2.10;;;;;;;;;;4187976;28;20403;-83
2022/04/15 01:25:57;;;;;;;5.32;2.05;;;;;;;;;;4183174;28;20105;-83
2022/04/15 01:27:59;;;;;;;8.48;2.60;;;;;;;;;;4183346;28;20037;-83
2022/04/15 01:30:00;;;;;;;7.57;2.03;;;;;;;;;;4181867;28;20411;-83
2022/04/15 01:32:03;;;;;;;5.65;2.10;;;;;;;;;;4182852;28;20071;-83
2022/04/15 01:34:04;;;;;;;6.53;1.77;;;;;;;;;;4183851;28;20137;-82
2022/04/15 01:36:05;;;;;;;7.35;1.80;;;;;;;;;;4189812;28;20123;-82
2022/04/15 01:38:10;;;;;;;8.50;2.63;;;;;;;;;;4183203;28;20056;-82
2022/04/15 01:40:12;;;;;;;8.63;2.42;;;;;;;;;;4182934;28;20514;-83
2022/04/15 01:42:14;;;;;;;6.03;2.13;;;;;;;;;;4182665;28;20048;-83
2022/04/15 01:44:15;;;;;;;4.47;2.05;;;;;;;;;;4182341;28;20121;-82
2022/04/15 01:46:16;;;;;;;12.15;2.83;;;;;;;;;;4182408;28;20084;-83
2022/04/15 01:48:17;;;;;;;13.55;3.28;;;;;;;;;;4182487;28;20041;-83
2022/04/15 01:50:18;;;;;;;12.18;2.78;;;;;;;;;;4182516;28;20045;-83
2022/04/15 01:52:20;;;;;;;9.75;3.70;;;;;;;;;;4182415;28;20201;-83
2022/04/15 01:54:21;;;;;;;8.35;2.58;;;;;;;;;;4182207;28;20052;-82
2022/04/15 01:56:22;;;;;;;12.23;3.17;;;;;;;;;;4181943;28;20045;-83
2022/04/15 01:58:23;;;;;;;14.45;4.47;;;;;;;;;;4182311;28;20048;-84
2022/04/15 02:00:24;;;;;;;14.90;3.35;;;;;;;;;;4181238;28;20049;-82
2022/04/15 02:02:25;;;;;;;11.60;3.53;;;;;;;;;;4182227;28;20051;-83
2022/04/15 02:04:26;;;;;;;10.00;3.65;;;;;;;;;;4182160;28;20037;-83
2022/04/15 02:06:27;;;;;;;15.27;3.75;;;;;;;;;;4180900;28;20049;-83
2022/04/15 02:08:28;;;;;;;17.15;4.68;;;;;;;;;;4181800;28;20052;-82
2022/04/15 02:10:29;;;;;;;10.18;3.60;;;;;;;;;;4182346;28;20082;-82
2022/04/15 02:12:30;;;;;;;11.50;3.85;;;;;;;;;;4180936;28;20049;-82
2022/04/15 02:14:31;;;;;;;17.02;4.18;;;;;;;;;;4182101;28;20045;-82
2022/04/15 02:16:33;;;;;;;15.27;4.30;;;;;;;;;;4181868;28;20057;-83
2022/04/15 02:18:35;;;;;;;12.68;4.15;;;;;;;;;;4180994;28;20072;-82
2022/04/15 02:20:36;;;;;;;9.65;3.28;;;;;;;;;;4182073;28;20441;-83
2022/04/15 02:22:37;;;;;;;19.17;4.40;;;;;;;;;;4180599;28;20411;-83
2022/04/15 02:24:38;;;;;;;8.23;3.70;;;;;;;;;;4181949;28;20052;-82
2022/04/15 02:26:41;;;;;;;8.63;4.38;;;;;;;;;;4182072;28;20045;-83
2022/04/15 02:28:42;;;;;;;11.07;4.65;;;;;;;;;;4180938;28;20099;-83
2022/04/15 02:30:47;;;;;;;13.20;5.70;;;;;;;;;;4181845;28;20041;-82
2022/04/15 02:32:48;;;;;;;14.95;6.53;;;;;;;;;;4181542;28;20044;-83
2022/04/15 02:34:49;;;;;;;11.77;6.20;;;;;;;;;;4180861;28;20056;-83
2022/04/15 02:36:50;;;;;;;12.15;6.03;;;;;;;;;;4182076;28;20491;-83
2022/04/15 02:38:51;;;;;;;15.10;6.50;;;;;;;;;;4181919;28;20037;-82
2022/04/15 02:40:52;;;;;;;11.13;5.85;;;;;;;;;;4180139;28;20049;-82
2022/04/15 02:42:54;;;;;;;12.73;5.65;;;;;;;;;;4181813;28;20041;-83
2022/04/15 02:44:56;;;;;;;8.95;5.47;;;;;;;;;;4181672;28;20440;-82
2022/04/15 02:46:58;;;;;;;9.98;5.60;;;;;;;;;;4181219;28;20138;-83
2022/04/15 02:48:59;;;;;;;10.57;6.47;;;;;;;;;;4180282;28;20111;-82
2022/04/15 02:51:00;;;;;;;9.18;5.38;;;;;;;;;;4180096;28;20139;-82
2022/04/15 02:53:01;;;;;;;9.10;5.35;;;;;;;;;;4180698;28;20044;-82
2022/04/15 02:55:04;;;;;;;7.50;5.10;;;;;;;;;;4179899;28;20123;-83
2022/04/15 02:57:05;;;;;;;7.07;4.63;;;;;;;;;;4180216;28;20053;-83
2022/04/15 02:59:06;;;;;;;9.27;4.70;;;;;;;;;;4181362;28;20037;-82
2022/04/15 03:01:07;;;;;;;7.80;3.85;;;;;;;;;;4181328;28;20498;-82
2022/04/15 03:03:08;;;;;;;6.18;3.10;;;;;;;;;;4180965;28;20047;-82
2022/04/15 03:05:09;;;;;;;5.78;3.20;;;;;;;;;;4181306;28;20399;-82
2022/04/15 03:07:10;;;;;;;5.85;3.65;;;;;;;;;;4181287;28;20048;-83
2022/04/15 03:09:12;;;;;;;6.68;3.80;;;;;;;;;;4181251;28;20045;-83
2022/04/15 03:11:13;;;;;;;3.78;2.88;;;;;;;;;;4181012;28;20070;-83
2022/04/15 03:13:14;;;;;;;5.15;3.10;;;;;;;;;;4180949;28;20048;-82
2022/04/15 03:15:15;;;;;;;5.30;3.70;;;;;;;;;;4180654;28;20040;-82
2022/04/15 03:17:16;;;;;;;8.18;4.35;;;;;;;;;;4181317;28;20079;-82
2022/04/15 03:19:17;;;;;;;7.35;3.03;;;;;;;;;;4180701;28;20067;-82
2022/04/15 03:21:18;;;;;;;4.22;3.00;;;;;;;;;;4181134;28;20033;-83
2022/04/15 03:23:19;;;;;;;4.68;2.70;;;;;;;;;;4181204;28;20053;-83
2022/04/15 03:25:20;;;;;;;4.53;3.28;;;;;;;;;;4180702;28;20040;-83
2022/04/15 03:27:21;;;;;;;5.65;3.00;;;;;;;;;;4180933;28;20507;-83
2022/04/15 03:29:22;;;;;;;5.93;3.30;;;;;;;;;;4179453;28;20041;-83
2022/04/15 03:31:24;;;;;;;7.20;3.20;;;;;;;;;;4180791;28;20049;-82
2022/04/15 03:33:25;;;;;;;4.22;2.85;;;;;;;;;;4180879;28;20501;-82
2022/04/15 03:35:26;;;;;;;6.15;2.97;;;;;;;;;;4180932;28;20081;-83
2022/04/15 03:37:27;;;;;;;3.85;2.67;;;;;;;;;;4179842;28;20076;-81
2022/04/15 03:39:28;;;;;;;3.30;2.17;;;;;;;;;;4180736;28;20063;-82
2022/04/15 03:41:29;;;;;;;3.97;2.50;;;;;;;;;;4180727;28;20513;-82
2022/04/15 03:43:30;;;;;;;4.07;2.40;;;;;;;;;;4180600;28;20049;-82
2022/04/15 03:45:31;;;;;;;5.28;2.67;;;;;;;;;;4180534;28;20117;-81
2022/04/15 03:47:32;;;;;;;5.10;2.58;;;;;;;;;;4180734;28;20465;-82
2022/04/15 03:49:33;;;;;;;3.10;2.50;;;;;;;;;;4180658;28;20049;-83
2022/04/15 03:51:34;;;;;;;4.45;2.50;;;;;;;;;;4180306;28;20036;-83
2022/04/15 03:53:35;;;;;;;2.75;2.00;;;9.20;99.90;;;;;;4180526;28;20068;-83
2022/04/15 03:55:36;;;;;;;6.60;2.42;;;8.30;99.90;;;;;;4180643;28;20044;-83
2022/04/15 03:57:38;;;;;;;5.13;2.53;;;8.30;99.90;;;;;;4180645;28;20475;-82
2022/04/15 03:59:39;;;;;;;5.78;2.45;;;8.90;99.90;;;;;;4179182;28;20045;-83
2022/04/15 04:01:39;;;;;;;5.20;2.80;;;8.30;99.90;;;;;;4180659;28;20051;-83
2022/04/15 04:03:41;;;;;;;4.00;2.25;;;8.30;99.90;;;;;;4180568;28;20049;-82
2022/04/15 04:05:42;;;;;;;5.55;2.55;;;8.30;99.90;;;;;;4180112;28;20064;-82
2022/04/15 04:07:44;;;;;;;9.70;4.20;;;8.30;99.90;;;;;;4180551;28;20068;-82
2022/04/15 04:09:45;;;;;;;4.65;2.20;;;8.90;99.90;;;;;;4180379;28;20527;-82
2022/04/15 04:11:47;;;;;;;3.38;2.00;;;8.10;99.90;;;;;;4179245;28;20422;-82
2022/04/15 04:13:48;;;;;;;2.38;1.70;;;8.80;99.90;;;;;;4179234;28;20454;-82
2022/04/15 04:15:49;;;;;;;2.22;2.00;;;8.10;99.90;;;;;;4179794;28;20049;-82
2022/04/15 04:17:50;;;;;;;2.42;1.73;;;8.20;99.90;;;;;;4180463;28;20084;-83
2022/04/15 04:19:51;;;;;;;5.18;1.65;;;8.50;99.90;;;;;;4180531;28;20049;-81
2022/04/15 04:21:51;;;;;;;3.78;2.00;;;8.50;99.90;;;;;;4179574;28;20064;-83
2022/04/15 04:23:52;;;;;;;3.63;2.10;;;8.00;99.90;;;;;;4180394;28;20112;-82
2022/04/15 04:25:52;;;;;;;4.00;2.40;;;8.10;99.90;;;;;;4180362;28;20056;-82
2022/04/15 04:27:54;;;;;;;6.03;1.90;;;8.50;99.90;;;;;;4180461;28;20044;-83
2022/04/15 04:29:55;;;;;;;2.72;2.00;;;8.40;99.90;;;;;;4179759;28;20045;-83
2022/04/15 04:31:55;;;;;;;3.33;2.00;;;8.60;99.90;;;;;;4180363;28;20585;-83
2022/04/15 04:33:56;;;;;;;1.95;1.50;;;8.00;99.90;;;;;;4180184;28;20094;-83
2022/04/15 04:35:57;;;;;;;3.72;2.13;;;8.00;99.90;;;;;;4179087;28;20048;-83
2022/04/15 04:37:57;;;;;;;3.53;1.70;;;8.00;99.90;;;;;;4180289;28;20045;-83
2022/04/15 04:39:58;;;;;;;2.22;1.50;;;7.90;99.90;;;;;;4179885;28;20119;-83
2022/04/15 04:42:00;;;;;;;2.83;2.17;;;8.10;99.90;;;;;;4180388;28;20049;-83
2022/04/15 04:44:00;;;;;;;2.58;1.90;;;8.30;99.90;;;;;;4180520;28;20033;-81
2022/04/15 04:46:01;;;;;;;6.13;1.90;;;8.00;99.90;;;;;;4180288;28;20044;-81
2022/04/15 04:48:03;;;;;;;2.97;2.13;;;8.00;99.90;;;;;;4179916;28;20041;-82
2022/04/15 04:50:08;;;;;;;4.57;1.83;;;8.00;99.90;;;;;;4183258;28;20120;-82
2022/04/15 04:52:08;;;;;;;2.72;1.98;;;8.00;99.90;;;;;;4183383;28;20564;-82
2022/04/15 04:54:09;;;;;;;5.40;2.17;;;8.20;99.90;;;;;;4182869;28;20045;-82
2022/04/15 04:56:10;;;;;;;4.28;2.35;;;8.80;99.90;;;;;;4183191;28;20487;-83
2022/04/15 04:58:10;;;;;;;2.55;1.92;;;8.90;99.90;;;;;;4183056;28;20052;-83
2022/04/15 05:00:14;;;;;;;5.68;2.97;;;7.90;99.90;;;;;;4182788;28;20076;-82
2022/04/15 05:02:14;;;;;;;3.50;1.95;;;7.90;99.90;;;;;;4182352;28;20048;-83
2022/04/15 05:04:15;;;;;;;6.28;2.90;;;7.90;99.90;;;;;;4182972;28;20049;-83
2022/04/15 05:06:16;;;;;;;2.88;2.35;;;8.20;99.90;;;;;;4183034;28;20055;-82
2022/04/15 05:08:16;;;;;;;3.80;2.40;;;7.90;99.90;;;;;;4181629;28;20083;-82
2022/04/15 05:10:17;;;;;;;3.75;2.42;;;8.00;99.90;;;;;;4183016;28;20103;-82
2022/04/15 05:12:18;;;;;;;4.88;2.47;;;8.50;99.90;;;;;;4183122;28;20063;-82
2022/04/15 05:14:19;;;;;;;7.18;2.95;;;8.80;99.90;;;;;;4182871;28;20041;-83
2022/04/15 05:16:19;;;;;;;3.50;2.13;;;8.00;99.90;;;;;;4181096;28;20053;-82
2022/04/15 05:18:20;;;;;;;4.90;2.38;;;8.00;99.90;;;;;;4182936;28;20538;-82
2022/04/15 05:20:21;;;;;;;5.75;2.88;;;8.40;99.90;;;;;;4181568;28;20056;-83
2022/04/15 05:22:23;;;;;;;5.10;2.78;;;8.20;99.90;;;;;;4182808;28;20588;-82
2022/04/15 05:24:24;;;;;;;5.97;3.50;;;8.40;99.90;;;;;;4182790;28;20504;-83
2022/04/15 05:26:24;;;;;;;3.75;2.90;;;8.10;99.90;;;;;;4182475;28;20120;-83
2022/04/15 05:28:25;;;;;;;6.13;3.13;;;8.10;99.90;;;;;;4182887;28;20063;-83
2022/04/15 05:30:26;;;;;;;5.28;3.25;;;8.10;99.90;;;;;;4182785;28;20059;-83
2022/04/15 05:32:27;;;;;;;6.00;3.35;;;8.10;99.90;;;;;;4181775;28;20535;-82
2022/04/15 05:34:28;;;;;;;3.88;3.05;;;8.70;99.90;;;;;;4181607;28;20883;-82
2022/04/15 05:36:29;;;;;;;5.32;3.05;;;8.20;99.90;;;;;;4182901;28;20049;-82
2022/04/15 05:38:30;;;;;;;5.03;3.00;;;8.80;99.90;;;;;;4182822;28;20045;-82
2022/04/15 05:40:30;;;;;;;8.05;3.40;;;8.20;99.90;;;;;;4181794;28;20045;-82
2022/04/15 05:42:31;;;;;;;10.88;3.60;;;8.20;99.90;;;;;;4182579;28;20376;-82
2022/04/15 05:44:32;;;;;;;5.57;3.60;;;8.30;99.90;;;;;;4182486;28;20044;-83
2022/04/15 05:46:32;;;;;;;7.43;3.90;;;8.20;99.90;;;;;;4181546;28;20121;-82
2022/04/15 05:48:33;;;;;;;7.85;3.80;;;8.10;99.90;;;;;;4182529;28;20037;-81
2022/04/15 05:50:34;;;;;;;7.53;3.90;;;8.10;99.90;;;;;;4181461;28;20053;-82
2022/04/15 05:52:35;;;;;;;4.28;3.40;;;8.10;99.90;;;;;;4180611;28;20044;-83
2022/04/15 05:54:35;;;;;;;8.07;4.25;;;8.20;99.90;;;;;;4182220;28;20036;-83
2022/04/15 05:56:36;;;;;;;7.53;3.70;;;8.20;99.90;;;;;;4182314;28;20045;-82
2022/04/15 05:58:38;;;;;;;9.48;3.50;;;8.20;99.90;;;;;;4182242;28;20037;-83
2022/04/15 06:00:38;;;;;;;8.32;4.13;;;8.20;99.90;;;;;;4180788;28;20045;-83
2022/04/15 06:02:39;;;;;;;8.98;3.45;;;8.30;99.90;;;;;;4182275;28;20537;-83
2022/04/15 06:04:40;;;;;;;6.07;3.65;;;8.30;99.90;;;;;;4180813;28;20041;-82
2022/04/15 06:06:41;;;;;;;8.05;4.15;;;8.70;99.90;;;;;;4164362;28;20127;-83
2022/04/15 06:08:42;;;;;;;7.85;4.50;;;8.60;99.90;;;;;;4181974;28;20041;-83
2022/04/15 06:10:42;;;;;;;9.18;4.30;;;8.30;99.90;;;;;;4180913;28;20114;-82
2022/04/15 06:13:00;;;;;;;6.70;4.20;;;9.10;99.90;;;;;;4180086;28;20049;-82
2022/04/15 06:15:02;;;;;;;10.27;4.93;;;8.40;99.90;;;;;;4181606;28;20048;-83
2022/04/15 06:17:03;;;;;;;8.88;5.30;;;8.80;99.90;;;;;;4181731;28;20057;-83
2022/04/15 06:19:05;;;;;;;10.65;5.72;;;8.40;99.90;;;;;;4181999;28;20123;-82
2022/04/15 06:21:05;;;;;;;13.18;6.15;;;9.10;99.90;;;;;;4181932;28;20098;-83
2022/04/15 06:23:06;;;;;;;19.40;7.65;;;;;;;;;;4181773;28;20040;-83
2022/04/15 06:25:08;;;;;;;13.15;7.43;;;;;;;;;;4180594;28;20048;-82
2022/04/15 06:27:09;;;;;;;17.10;7.18;;;;;;;;;;4180086;28;20037;-83
2022/04/15 06:29:10;;;;;;;16.70;7.70;;;;;;;;;;4181505;28;20056;-83
2022/04/15 06:31:11;;;;;;;14.82;7.38;;;;;;;;;;4181728;28;20064;-83
2022/04/15 06:33:15;;;;;;;12.95;7.53;;;;;;;;;;4181580;28;20045;-83
2022/04/15 06:35:16;;;;;;;15.93;7.03;;;;;;;;;;4181801;28;20052;-83
2022/04/15 06:37:17;;;;;;;17.40;7.57;;;;;;;;;;4181068;28;20506;-82
2022/04/15 06:39:18;;;;;;;16.15;7.15;;;;;;;;;;4180644;28;20132;-83
2022/04/15 06:41:19;;;;;;;15.90;7.55;;;;;;;;;;4181349;28;20170;-83
2022/04/15 06:43:20;;;;;;;15.35;6.32;;;;;;;;;;4181516;28;20041;-82
2022/04/15 06:45:22;;;;;;;18.23;6.55;;;;;;;;;;4181396;28;20081;-83
2022/04/15 06:47:23;;;;;;;16.98;6.38;;;;;;;;;;4181506;28;20489;-82
2022/04/15 06:49:24;;;;;;;13.95;6.20;;;;;;;;;;4181485;28;20037;-82
2022/04/15 06:51:28;;;;;;;13.15;6.25;;;;;;;;;;4180832;28;20114;-83
2022/04/15 06:53:29;;;;;;;16.70;6.53;;;;;;;;;;4180236;28;20091;-82
2022/04/15 06:55:30;;;;;;;14.95;6.57;;;;;;;;;;4181167;28;20045;-83
2022/04/15 06:57:32;;;;;;;13.07;6.68;;;;;;;;;;4180356;28;20052;-82
2022/04/15 06:59:33;;;;;;;13.77;5.72;;;;;;;;;;4181149;28;20070;-82
2022/04/15 07:01:35;;;;;;;13.60;6.32;;;;;;;;;;4180837;28;20079;-83
2022/04/15 07:03:38;;;;;;;11.90;5.70;;;;;;;;;;4181285;28;20075;-82
2022/04/15 07:05:39;;;;;;;13.15;5.20;;;;;;;;;;4181313;28;20407;-82
2022/04/15 07:07:42;;;;;;;9.35;4.78;;;;;;;;;;4181237;28;20040;-82
2022/04/15 07:09:44;;;;;;;13.10;5.95;;;;;;;;;;4163233;28;20107;-83
2022/04/15 07:11:45;;;;;;;17.10;5.43;;;;;;;;;;4179813;28;20045;-82
2022/04/15 07:13:47;;;;;;;12.80;4.00;;;;;;;;;;4179252;28;20049;-82
2022/04/15 07:15:50;;;;;;;10.75;4.15;;;;;;;;;;4180343;28;20098;-83
2022/04/15 07:17:51;;;;;;;10.30;4.28;;;;;;;;;;4180200;28;20086;-83
2022/04/15 07:19:52;;;;;;;7.47;4.03;;;;;;;;;;4179115;28;20069;-83
2022/04/15 07:21:53;;;;;;;12.57;5.13;;;;;;;;;;4179909;28;20088;-83
2022/04/15 07:23:55;;;;;;;14.40;4.32;;;;;;;;;;4180326;28;20041;-82
2022/04/15 07:25:56;;;;;;;8.18;4.35;;;;;;;;;;4178943;28;20044;-82
2022/04/15 07:27:57;;;;;;;9.50;4.15;;;;;;;;;;4180593;28;20533;-83
2022/04/15 07:29:58;;;;;;;14.32;4.80;;;;;;;;;;4180933;28;20032;-83
2022/04/15 07:31:59;;;;;;;12.80;5.00;;;;;;;;;;4180931;28;20076;-82
2022/04/15 07:34:01;;;;;;;8.50;4.53;;;;;;;;;;4180788;28;20467;-82
2022/04/15 07:36:03;;;;;;;12.25;4.80;;;;;;;;;;4179795;28;20094;-82
2022/04/15 07:38:04;;;;;;;11.20;3.90;;;;;;;;;;4181531;28;20498;-82
2022/04/15 07:40:06;;;;;;;13.13;4.70;;;;;;;;;;4181062;28;20717;-83
2022/04/15 07:42:07;;;;;;;11.60;4.07;;;;;;;;;;4180733;28;20545;-82
2022/04/15 07:44:09;;;;;;;8.65;4.85;;;;;;;;;;4180236;28;20045;-83
2022/04/15 07:46:10;;;;;;;10.80;4.07;;;;;;;;;;4180736;28;20037;-83
2022/04/15 07:48:12;;;;;;;9.73;4.07;;;;;;;;;;4180651;28;20074;-82
2022/04/15 07:50:13;;;;;;;7.22;4.30;;;;;;;;;;4180633;28;20049;-82
2022/04/15 07:52:14;;;;;;;11.35;4.70;;;;;;;;;;4179244;28;20147;-82
2022/04/15 07:54:16;;;;;;;10.20;4.35;;;;;;;;;;4180737;28;20048;-83
2022/04/15 07:56:17;;;;;;;17.02;4.53;;;;;;;;;;4178795;28;20538;-83
2022/04/15 07:58:18;;;;;;;12.40;4.50;;;;;;;;;;4179420;28;20498;-83
2022/04/15 08:00:20;;;;;;;9.00;4.32;;;;;;;;;;4180519;28;20044;-82
2022/04/15 08:02:21;;;;;;;10.68;4.30;;;;;;;;;;4179116;28;20136;-83
2022/04/15 08:04:22;;;;;;;11.88;4.68;;;;;;;;;;4179308;28;20045;-83
2022/04/15 08:06:25;;;;;;;9.95;4.03;;;;;;;;;;4180032;28;20045;-82
2022/04/15 08:08:26;;;;;;;10.70;3.92;;;;;;;;;;4180411;28;20036;-83
2022/04/15 08:10:27;;;;;;;8.95;4.03;;;;;;;;;;4180258;28;20047;-83
2022/04/15 08:12:28;;;;;;;8.68;4.13;;;;;;;;;;4180414;28;20123;-82
2022/04/15 08:14:30;;;;;;;9.40;3.85;;;;;;;;;;4179831;28;20127;-82
2022/04/15 08:16:31;;;;;;;9.02;3.95;;;;;;;;;;4180203;28;20514;-82
2022/04/15 08:18:32;;;;;;;6.80;3.90;;;;;;;;;;4180264;28;20049;-83
2022/04/15 08:20:33;;;;;;;10.52;2.85;;;;;;;;;;4180301;28;20069;-82
2022/04/15 08:22:35;;;;;;;7.05;3.22;;;;;;;;;;4181702;28;20067;-82
2022/04/15 08:24:42;;;;;;;10.48;4.07;;;;;;;;;;4183633;28;20045;-82
2022/04/15 08:26:45;;;;;;;9.68;3.28;;;;;;;;;;4183615;28;20056;-82
2022/04/15 08:28:46;;;;;;;9.50;4.03;;;;;;;;;;4182923;28;20036;-83
2022/04/15 08:30:48;;;;;;;7.75;3.58;;;;;;;;;;4183353;28;20044;-82
2022/04/15 08:32:52;;;;;;;10.00;2.95;;;;;;;;;;4183794;28;20573;-82
2022/04/15 08:34:53;;;;;;;7.75;3.53;;;;;;;;;;4183469;28;20052;-82
2022/04/15 08:36:54;;;;;;;9.10;3.45;;;;;;;;;;4183046;28;20144;-82
2022/04/15 08:38:55;;;;;;;6.35;3.10;;;;;;;;;;4183544;28;20037;-82
2022/04/15 08:40:58;;;;;;;11.27;2.97;;;;;;;;;;4182076;28;20045;-82
2022/04/15 08:43:03;;;;;;;7.68;3.42;;;;;;;;;;4183507;28;20041;-83
2022/04/15 08:45:06;;;;;;;8.40;3.05;;;;;;;;;;4183532;28;20041;-83
2022/04/15 08:47:08;;;;;;;11.82;3.78;;;;;;;;;;4183670;28;20114;-82
2022/04/15 08:49:09;;;;;;;9.77;3.80;;;;;;;;;;4181774;28;20044;-83
2022/04/15 08:51:11;;;;;;;7.53;3.58;;;;;;;;;;4183644;28;20048;-83
2022/04/15 08:53:12;;;;;;;9.63;3.30;;;;;;;;;;4183197;28;20491;-83
2022/04/15 08:55:13;;;;;;;13.15;3.45;;;;;;;;;;4181981;28;20179;-83
2022/04/15 08:57:15;;;;;;;7.40;3.50;;;;;;;;;;4183325;28;20130;-83
2022/04/15 08:59:16;;;;;;;5.88;2.95;;;;;;;;;;4182794;28;20179;-82
2022/04/15 09:01:17;;;;;;;7.47;2.97;;;;;;;;;;4183231;28;20044;-82
2022/04/15 09:03:18;;;;;;;7.50;3.42;;;;;;;;;;4183279;28;20060;-83
2022/04/15 09:05:20;;;;;;;7.57;3.67;;;;;;;;;;4183305;28;20072;-82
2022/04/15 09:07:21;;;;;;;7.60;3.47;;;;;;;;;;4183533;28;20049;-82
2022/04/15 09:09:29;;;;;;;5.68;3.20;;;;;;;;;;4183778;28;20111;-83
2022/04/15 09:11:34;;;;;;;7.82;3.47;;;;;;;;;;4181915;28;20558;-83
2022/04/15 09:13:35;;;;;;;8.05;3.97;;;;;;;;;;4183528;28;20080;-83
2022/04/15 09:15:36;;;;;;;6.07;3.40;;;;;;;;;;4165142;28;20050;-82
2022/04/15 09:17:38;;;;;;;17.55;4.32;;;;;;;;;;4182291;28;20139;-83
2022/04/15 09:19:40;;;;;;;9.10;3.95;;;;;;;;;;4182834;28;20049;-83
2022/04/15 09:21:42;;;;;;;8.40;3.63;;;;;;;;;;4181509;28;20130;-82
2022/04/15 09:23:50;;;;;;;9.68;3.15;;;;;;;;;;4182470;28;20045;-83
2022/04/15 09:25:52;;;;;;;8.40;3.33;;;;;;;;;;4180860;28;20057;-83
2022/04/15 09:27:56;;;;;;;8.25;4.10;;;;;;;;;;4181953;28;20068;-83
2022/04/15 09:29:57;;;;;;;6.45;3.88;;;9.30;99.90;;;;;;4185290;28;20105;-82
2022/04/15 09:32:04;;;;;;;8.82;3.63;;;13.50;95.50;;;;;;4187238;28;20049;-82
2022/04/15 09:34:07;;;;;;;7.50;3.50;;;13.30;95.40;;;;;;4185118;28;20395;-83
2022/04/15 09:36:08;;;;;;;7.88;3.88;;;13.40;95.40;;;;;;4186429;28;20076;-82
2022/04/15 09:38:08;;;;;;;12.02;4.10;;;13.30;95.40;;;;;;4186406;28;20387;-82
2022/04/15 09:40:12;;;;;;;10.25;4.93;;;13.10;95.40;;;;;;4185015;28;20037;-82
2022/04/15 09:42:14;;;;;;;8.90;4.20;;;13.10;95.50;;;;;;4185634;28;20037;-81
2022/04/15 09:44:14;;;;;;;15.20;4.35;;;13.30;95.90;;;;;;4185109;28;20440;-81
2022/04/15 09:46:15;;;;;;;12.10;4.22;;;13.10;96.00;;;;;;4184600;28;20040;-82
2022/04/15 09:48:15;;;;;;;8.07;4.25;;;12.70;95.80;;;;;;4185193;28;20041;-81
2022/04/15 09:50:39;;;;;;;7.97;3.70;;;12.80;95.90;;;;;;4185590;28;20055;-81
2022/04/15 09:52:40;;;;;;;10.45;4.07;;;12.80;95.40;;;;;;4182133;28;20128;-82
2022/04/15 09:54:43;;;;;;;10.32;4.00;;;12.70;96.00;;;;;;4182361;28;20348;-82
2022/04/15 09:56:46;;;;;;;8.05;4.55;;;12.70;95.70;;;;;;4182542;28;20445;-82
2022/04/15 09:58:52;;;;;;;10.85;4.22;;;12.70;95.70;;;;;;4182403;28;20041;-83
2022/04/15 10:00:52;;;;;;;8.57;4.55;;;12.60;95.60;;;;;;4180513;28;20127;-82
2022/04/15 10:02:54;;;;;;;10.32;3.90;;;12.60;95.70;;;;;;4182472;28;20060;-83
2022/04/15 10:04:54;;;;;;;6.35;3.67;;;12.60;95.80;;;;;;4182017;28;20064;-83
2022/04/15 10:06:55;;;;;;;9.20;3.35;;;12.60;95.60;;;;;;4182369;28;20411;-83
2022/04/15 10:08:57;;;;;;;5.28;3.40;;;12.60;95.60;;;;;;4182203;28;20044;-82
2022/04/15 10:10:57;;;;;;;9.70;4.22;;;12.50;95.30;;;;;;4182144;28;20037;-82
2022/04/15 10:13:03;;;;;;;5.78;3.33;;;12.60;95.20;;;;;;4182146;28;20107;-82
2022/04/15 10:15:06;;;;;;;8.45;3.38;;;12.50;95.10;;;;;;4181329;28;20095;-82
2022/04/15 10:17:07;;;;;;;7.45;3.80;;;12.60;95.10;;;;;;4181965;28;20103;-82
2022/04/15 10:19:09;;;;;;;7.93;3.72;;;12.70;95.00;;;;;;4181927;28;20076;-82
2022/04/15 10:21:11;;;;;;;5.72;3.00;;;12.70;94.90;;;;;;4181874;28;20095;-83
2022/04/15 10:23:12;;;;;;;6.15;3.35;;;12.80;94.80;;;;;;4180342;28;20094;-82
2022/04/15 10:25:14;;;;;;;4.95;3.55;;;12.80;94.50;;;;;;4181839;28;20487;-82
2022/04/15 10:27:22;;;;;;;7.15;3.60;;;12.90;94.50;;;;;;4181341;28;20068;-82
2022/04/15 10:29:23;;;;;;;6.67;3.40;;;12.80;94.50;;;;;;4181792;28;20041;-83
2022/04/15 10:31:26;;;;;;;6.47;3.10;;;12.80;94.50;;;;;;4181720;28;20314;-82
2022/04/15 10:33:30;;;;;;;7.10;3.65;;;12.80;94.50;;;;;;4181113;28;20110;-82
2022/04/15 10:35:34;;;;;;;6.03;3.22;;;12.80;94.40;;;;;;4181643;28;20396;-83
2022/04/15 10:37:54;;;;;;;7.35;3.55;;;12.80;94.50;;;;;;4181577;28;20041;-83
2022/04/15 10:39:54;;;;;;;5.90;3.53;;;12.80;94.40;;;;;;4180034;28;20049;-82
2022/04/15 10:42:05;;;;;;;7.97;3.42;;;12.80;94.60;;;;;;4181244;28;20461;-83
2022/04/15 10:44:05;;;;;;;6.45;3.72;;;12.70;94.50;;;;;;4181559;28;20049;-82
2022/04/15 10:46:14;;;;;;;4.90;2.60;;;13.10;94.70;;;;;;4178940;28;20052;-83
2022/04/15 10:48:28;;;;;;;;;;;12.70;94.40;;;;;;4180499;28;20056;-83
2022/04/15 10:50:34;;;;;;;8.80;3.33;;;12.60;93.90;;;;;;4181211;28;19920;-83
2022/04/15 10:52:35;;;;;;;5.50;3.08;;;12.50;94.40;;;;;;4180009;28;20059;-83
2022/04/15 10:54:36;;;;;;;6.45;3.40;;;12.60;94.30;;;;;;4162970;28;20053;-82
2022/04/15 10:56:57;;;;;;;6.47;3.35;;;12.60;94.30;;;;;;4181265;28;20466;-83
2022/04/15 11:01:21;;;;;;;6.28;2.95;;;12.60;94.50;;;;;;4181342;28;20139;-83
2022/04/15 11:03:28;;;;;;;5.75;3.08;;;12.50;94.50;;;;;;4180719;28;20045;-82
2022/04/15 11:05:32;;;;;;;4.85;2.67;;;12.40;94.50;;;;;;4181097;28;20410;-83
2022/04/15 11:07:50;;;;;;;4.28;2.80;;;12.40;94.60;;;;;;4181289;28;20052;-83
2022/04/15 11:09:51;;;;;;;5.97;3.53;;;12.40;94.50;;;;;;4181084;28;20490;-83
2022/04/15 11:11:53;;;;;;;7.28;3.55;;;12.50;94.70;;;;;;4180592;28;20056;-83
2022/04/15 11:13:58;;;;;;;4.07;2.78;;;12.40;94.60;;;;;;4181019;28;20044;-83
2022/04/15 11:16:06;;;;;;;9.25;3.17;;;12.40;94.70;;;;;;4180789;28;20063;-82
2022/04/15 11:18:15;;;;;;;7.25;3.15;;;12.40;94.80;;;;;;4181081;28;20048;-83
2022/04/15 11:20:16;;;;;;;7.37;3.27;;;12.50;94.80;;;;;;4180985;28;20083;-83
2022/04/15 11:22:17;;;;;;;6.90;3.40;;;12.40;94.80;;;;;;4181047;28;20355;-83
2022/04/15 11:24:26;;;;;;;6.88;3.25;;;12.50;95.00;;;;;;4180201;28;20059;-83
2022/04/15 11:26:28;;;;;;;4.63;2.97;;;12.50;94.60;;;;;;4179576;28;20048;-83
2022/04/15 11:28:29;;;;;;;6.45;3.30;;;12.30;94.50;;;;;;4180874;28;20033;-83
2022/04/15 11:30:30;;;;;;;7.40;3.95;;;12.40;94.60;;;;;;4180912;28;20487;-82
2022/04/15 11:32:44;;;;;;;8.57;3.60;;;12.50;94.60;;;;;;4180177;28;20088;-83